createdAt,value
2017-09-16T00:01:21.339Z,78.30
2017-09-16T00:03:49.638Z,78.40
2017-09-16T00:06:18.656Z,79.60
2017-09-16T00:08:46.901Z,79.50
2017-09-16T00:11:15.915Z,80.20
2017-09-16T00:13:44.160Z,80.10
2017-09-16T00:16:12.412Z,80.60
2017-09-16T00:18:43.008Z,81.00
2017-09-16T00:21:11.539Z,81.50
2017-09-16T00:23:39.784Z,81.70
2017-09-16T00:26:08.032Z,82.40
2017-09-16T00:28:36.274Z,82.70
2017-09-16T00:31:04.523Z,83.40
2017-09-16T00:33:32.763Z,84.50
2017-09-16T00:36:01.020Z,83.40
2017-09-16T00:38:30.029Z,82.80
2017-09-16T00:40:58.271Z,82.70
2017-09-16T00:43:27.292Z,84.40
2017-09-16T00:45:55.547Z,83.80
2017-09-16T00:48:24.563Z,83.90
2017-09-16T00:50:52.798Z,83.90
2017-09-16T00:53:21.061Z,83.80
2017-09-16T00:55:49.303Z,83.80
2017-09-16T00:58:17.560Z,84.40
2017-09-16T01:00:45.810Z,84.90
2017-09-16T01:03:14.838Z,86.50
2017-09-16T01:05:43.087Z,85.80
2017-09-16T01:08:12.124Z,87.90
2017-09-16T01:10:40.367Z,87.80
2017-09-16T01:13:08.635Z,87.90
2017-09-16T01:15:37.638Z,88.90
2017-09-16T01:18:05.894Z,88.90
2017-09-16T01:20:34.920Z,88.20
2017-09-16T01:23:03.172Z,88.10
2017-09-16T01:25:32.202Z,87.40
2017-09-16T01:28:00.454Z,87.40
2017-09-16T01:30:28.702Z,86.70
2017-09-16T01:32:57.720Z,86.40
2017-09-16T01:35:25.964Z,85.90
2017-09-16T01:37:54.201Z,85.70
2017-09-16T01:40:22.463Z,85.00
2017-09-16T01:42:50.711Z,84.90
2017-09-16T01:45:19.736Z,86.20
2017-09-16T01:47:47.984Z,86.10
2017-09-16T01:50:17.000Z,86.00
2017-09-16T01:52:45.247Z,86.00
2017-09-16T01:55:14.262Z,87.10
2017-09-16T01:57:42.523Z,87.00
2017-09-16T02:00:10.771Z,86.70
2017-09-16T02:02:39.032Z,87.60
2017-09-16T02:05:07.271Z,86.90
2017-09-16T02:07:35.528Z,87.40
2017-09-16T02:10:03.780Z,87.60
2017-09-16T02:12:32.796Z,86.70
2017-09-16T02:15:01.051Z,87.20
2017-09-16T02:17:30.082Z,85.80
2017-09-16T02:19:58.335Z,85.70
2017-09-16T02:22:27.351Z,86.50
2017-09-16T02:24:55.607Z,86.50
2017-09-16T02:27:24.616Z,87.30
2017-09-16T02:29:52.874Z,87.20
2017-09-16T02:32:21.120Z,87.70
2017-09-16T02:34:50.156Z,88.00
2017-09-16T02:37:18.403Z,87.90
2017-09-16T02:39:47.425Z,88.00
2017-09-16T02:42:15.667Z,87.90
2017-09-16T02:44:44.683Z,88.90
2017-09-16T02:47:12.934Z,88.90
2017-09-16T02:49:41.964Z,90.00
2017-09-16T02:52:10.212Z,89.30
2017-09-16T02:54:39.252Z,89.10
2017-09-16T02:57:07.499Z,89.10
2017-09-16T02:59:35.754Z,89.10
2017-09-16T03:02:04.778Z,88.90
2017-09-16T03:04:33.035Z,88.70
2017-09-16T03:07:01.304Z,88.90
2017-09-16T03:09:30.330Z,88.40
2017-09-16T03:11:58.587Z,88.20
2017-09-16T03:14:26.849Z,88.40
2017-09-16T03:16:55.876Z,87.40
2017-09-16T03:19:24.140Z,87.40
2017-09-16T03:21:52.399Z,87.60
2017-09-16T03:24:20.655Z,88.30
2017-09-16T03:26:49.691Z,89.10
2017-09-16T03:29:18.187Z,89.00
2017-09-16T03:31:46.444Z,88.90
2017-09-16T03:34:14.708Z,89.40
2017-09-16T03:36:42.967Z,90.00
2017-09-16T03:39:11.991Z,90.30
2017-09-16T03:41:40.251Z,90.30
2017-09-16T03:44:08.532Z,90.50
2017-09-16T03:46:37.541Z,90.50
2017-09-16T03:49:05.798Z,90.50
2017-09-16T03:51:34.052Z,90.40
2017-09-16T03:54:03.087Z,90.10
2017-09-16T03:56:31.334Z,90.10
2017-09-16T03:58:59.618Z,90.00
2017-09-16T04:01:45.727Z,89.50
2017-09-16T04:04:13.987Z,89.70
2017-09-16T04:06:42.242Z,89.80
2017-09-16T04:09:11.266Z,90.00
2017-09-16T04:11:39.528Z,90.00
2017-09-16T04:14:07.784Z,89.90
2017-09-16T04:16:36.812Z,90.10
2017-09-16T04:19:05.066Z,89.70
2017-09-16T04:21:33.328Z,89.90
2017-09-16T04:24:02.349Z,90.20
2017-09-16T04:26:30.620Z,90.20
2017-09-16T04:28:58.874Z,90.20
2017-09-16T04:31:27.895Z,90.20
2017-09-16T04:33:56.146Z,90.10
2017-09-16T04:36:25.186Z,89.40
2017-09-16T04:38:53.447Z,89.40
2017-09-16T04:41:21.705Z,89.00
2017-09-16T04:43:49.963Z,89.60
2017-09-16T04:46:18.989Z,90.40
2017-09-16T04:48:47.255Z,90.40
2017-09-16T04:51:15.510Z,90.50
2017-09-16T04:53:44.545Z,90.90
2017-09-16T04:56:12.803Z,90.90
2017-09-16T04:58:41.072Z,90.90
2017-09-16T05:01:09.326Z,91.00
2017-09-16T05:03:38.362Z,91.20
2017-09-16T05:06:06.615Z,91.20
2017-09-16T05:08:34.879Z,91.60
2017-09-16T05:11:03.134Z,91.60
2017-09-16T05:13:32.175Z,91.80
2017-09-16T05:16:00.439Z,91.80
2017-09-16T05:18:28.707Z,91.90
2017-09-16T05:20:56.964Z,92.10
2017-09-16T05:23:25.984Z,92.20
2017-09-16T05:25:54.243Z,92.20
2017-09-16T05:28:22.506Z,92.10
2017-09-16T05:30:51.542Z,91.80
2017-09-16T05:33:19.804Z,91.80
2017-09-16T05:35:48.067Z,92.00
2017-09-16T05:38:16.323Z,92.10
2017-09-16T05:40:45.366Z,92.20
2017-09-16T05:43:13.614Z,92.10
2017-09-16T05:45:41.878Z,91.90
2017-09-16T05:48:10.135Z,91.90
2017-09-16T05:50:38.408Z,91.90
2017-09-16T05:53:06.666Z,92.00
2017-09-16T05:55:34.931Z,92.40
2017-09-16T05:58:03.190Z,92.20
2017-09-16T06:00:31.456Z,92.20
2017-09-16T06:02:59.719Z,92.40
2017-09-16T06:05:27.974Z,92.40
2017-09-16T06:07:57.012Z,93.10
2017-09-16T06:10:25.255Z,93.00
2017-09-16T06:12:54.284Z,93.20
2017-09-16T06:15:22.537Z,93.10
2017-09-16T06:17:50.804Z,93.20
2017-09-16T06:20:19.055Z,93.20
2017-09-16T06:22:47.325Z,93.20
2017-09-16T06:25:15.584Z,92.60
2017-09-16T06:27:43.846Z,92.50
2017-09-16T06:30:12.096Z,91.80
2017-09-16T06:32:40.342Z,91.50
2017-09-16T06:35:09.372Z,91.30
2017-09-16T06:37:37.615Z,91.30
2017-09-16T06:40:06.645Z,90.80
2017-09-16T06:42:34.888Z,90.80
2017-09-16T06:45:03.916Z,90.90
2017-09-16T06:47:32.162Z,90.90
2017-09-16T06:50:00.419Z,90.70
2017-09-16T06:52:29.435Z,91.00
2017-09-16T06:54:57.679Z,90.90
2017-09-16T06:57:25.919Z,90.70
2017-09-16T06:59:54.178Z,90.70
2017-09-16T07:02:22.441Z,90.20
2017-09-16T07:04:50.695Z,90.20
2017-09-16T07:07:19.741Z,89.00
2017-09-16T07:09:48.007Z,89.00
2017-09-16T07:12:16.268Z,89.00
2017-09-16T07:14:44.523Z,89.10
2017-09-16T07:17:13.551Z,89.30
2017-09-16T07:19:41.806Z,89.30
2017-09-16T07:22:10.070Z,87.60
2017-09-16T07:24:39.083Z,88.10
2017-09-16T07:27:07.348Z,88.00
2017-09-16T07:29:36.359Z,89.40
2017-09-16T07:32:04.616Z,89.30
2017-09-16T07:34:32.861Z,88.40
2017-09-16T07:37:01.128Z,88.10
2017-09-16T07:39:29.374Z,87.20
2017-09-16T07:41:57.630Z,87.70
2017-09-16T07:44:25.879Z,86.20
2017-09-16T07:46:54.877Z,86.50
2017-09-16T07:49:23.141Z,86.40
2017-09-16T07:51:52.145Z,86.20
2017-09-16T07:54:20.405Z,86.20
2017-09-16T07:56:49.419Z,84.80
2017-09-16T07:59:17.672Z,84.70
2017-09-16T08:01:46.691Z,86.10
2017-09-16T08:04:14.950Z,86.00
2017-09-16T08:06:43.965Z,86.40
2017-09-16T08:09:12.210Z,86.30
2017-09-16T08:11:41.226Z,85.70
2017-09-16T08:14:09.479Z,85.60
2017-09-16T08:16:38.503Z,86.30
2017-09-16T08:19:06.747Z,86.10
2017-09-16T08:21:35.756Z,85.80
2017-09-16T08:24:04.782Z,85.20
2017-09-16T08:26:33.028Z,85.10
2017-09-16T08:29:02.031Z,85.40
2017-09-16T08:31:30.284Z,85.40
2017-09-16T08:33:59.295Z,85.00
2017-09-16T08:36:27.546Z,84.90
2017-09-16T08:38:56.576Z,83.80
2017-09-16T08:41:24.834Z,83.70
2017-09-16T08:43:53.083Z,83.70
2017-09-16T08:46:21.334Z,82.80
2017-09-16T08:48:49.585Z,82.20
2017-09-16T08:51:17.830Z,81.80
2017-09-16T08:53:46.080Z,83.30
2017-09-16T08:56:14.351Z,81.70
2017-09-16T08:58:42.590Z,82.70
2017-09-16T09:01:10.842Z,82.20
2017-09-16T09:03:39.092Z,83.10
2017-09-16T09:06:08.106Z,82.50
2017-09-16T09:08:36.363Z,82.50
2017-09-16T09:11:05.386Z,83.20
2017-09-16T09:13:33.643Z,83.20
2017-09-16T09:16:02.660Z,83.70
2017-09-16T09:18:30.911Z,83.70
2017-09-16T09:20:59.171Z,84.00
2017-09-16T09:23:28.194Z,83.70
2017-09-16T09:25:56.448Z,82.90
2017-09-16T09:28:25.481Z,83.20
2017-09-16T09:30:53.725Z,83.20
2017-09-16T09:33:22.742Z,83.30
2017-09-16T09:35:50.998Z,83.20
2017-09-16T09:38:19.263Z,82.70
2017-09-16T09:40:48.274Z,81.20
2017-09-16T09:43:16.539Z,81.10
2017-09-16T09:45:44.804Z,78.90
2017-09-16T09:48:13.831Z,79.10
2017-09-16T09:50:42.096Z,79.10
2017-09-16T09:53:10.359Z,77.40
2017-09-16T09:55:39.375Z,76.60
2017-09-16T09:58:07.655Z,76.50
2017-09-16T10:00:35.925Z,75.70
2017-09-16T10:03:04.179Z,76.90
2017-09-16T10:05:32.443Z,76.10
2017-09-16T10:08:01.471Z,75.50
2017-09-16T10:10:29.740Z,75.40
2017-09-16T10:12:57.997Z,73.70
2017-09-16T10:15:27.010Z,69.90
2017-09-16T10:17:55.263Z,69.90
2017-09-16T10:20:24.290Z,70.00
2017-09-16T10:22:52.551Z,69.80
2017-09-16T10:25:20.817Z,69.40
2017-09-16T10:27:49.062Z,68.20
2017-09-16T10:30:17.315Z,67.30
2017-09-16T10:32:45.574Z,66.30
2017-09-16T10:35:13.818Z,65.70
2017-09-16T10:37:42.076Z,68.30
2017-09-16T10:40:11.101Z,68.20
2017-09-16T10:42:39.359Z,68.20
2017-09-16T10:45:08.379Z,66.50
2017-09-16T10:47:36.630Z,66.50
2017-09-16T10:50:04.886Z,64.50
2017-09-16T10:52:33.146Z,64.60
2017-09-16T10:55:01.400Z,64.30
2017-09-16T10:57:29.652Z,61.50
2017-09-16T10:59:57.904Z,63.30
2017-09-16T11:02:26.163Z,65.90
2017-09-16T11:04:55.189Z,64.70
2017-09-16T11:07:23.461Z,64.70
2017-09-16T11:09:51.714Z,63.40
2017-09-16T11:12:19.974Z,62.20
2017-09-16T11:14:48.245Z,64.60
2017-09-16T11:17:16.511Z,63.00
2017-09-16T11:19:44.753Z,65.00
2017-09-16T11:22:13.009Z,64.90
2017-09-16T11:24:41.270Z,65.40
2017-09-16T11:27:09.525Z,65.00
2017-09-16T11:29:38.543Z,65.80
2017-09-16T11:32:06.797Z,65.30
2017-09-16T11:34:35.813Z,66.80
2017-09-16T11:37:04.061Z,66.80
2017-09-16T11:39:33.086Z,62.90
2017-09-16T11:42:01.363Z,62.90
2017-09-16T11:44:29.603Z,61.50
2017-09-16T11:46:58.633Z,62.50
2017-09-16T11:49:28.008Z,62.50
2017-09-16T11:51:56.288Z,62.90
2017-09-16T11:54:25.294Z,68.20
2017-09-16T11:56:53.563Z,68.10
2017-09-16T11:59:22.589Z,68.00
2017-09-16T12:01:50.839Z,67.80
2017-09-16T12:04:19.104Z,74.10
2017-09-16T12:06:47.356Z,74.30
2017-09-16T12:09:15.619Z,69.10
2017-09-16T12:11:43.867Z,73.40
2017-09-16T12:14:12.129Z,76.90
2017-09-16T12:16:40.375Z,78.60
2017-09-16T12:19:09.421Z,73.60
2017-09-16T12:21:37.655Z,73.40
2017-09-16T12:24:05.918Z,71.00
2017-09-16T12:26:34.930Z,65.30
2017-09-16T12:29:03.179Z,65.20
2017-09-16T12:31:32.200Z,67.50
2017-09-16T12:34:00.453Z,67.70
2017-09-16T12:36:29.480Z,63.30
2017-09-16T12:38:57.723Z,63.40
2017-09-16T12:41:25.979Z,63.80
2017-09-16T12:43:54.227Z,66.20
2017-09-16T12:46:22.488Z,65.70
2017-09-16T12:48:50.744Z,58.40
2017-09-16T12:51:19.124Z,58.30
2017-09-16T12:53:47.372Z,52.00
2017-09-16T12:56:16.387Z,54.00
2017-09-16T12:58:44.643Z,54.00
2017-09-16T13:01:13.654Z,59.80
2017-09-16T13:03:41.914Z,59.80
2017-09-16T13:06:10.924Z,47.60
2017-09-16T13:08:39.901Z,47.60
2017-09-16T13:11:09.011Z,50.70
2017-09-16T13:13:37.263Z,50.70
2017-09-16T13:16:06.275Z,55.60
2017-09-16T13:18:34.550Z,55.60
2017-09-16T13:21:03.554Z,56.60
2017-09-16T13:23:31.803Z,56.40
2017-09-16T13:26:00.822Z,56.30
2017-09-16T13:28:29.068Z,56.10
2017-09-16T13:30:58.083Z,55.20
2017-09-16T13:33:26.326Z,55.20
2017-09-16T13:35:54.578Z,55.00
2017-09-16T13:38:22.835Z,54.70
2017-09-16T13:40:51.078Z,54.20
2017-09-16T13:43:20.089Z,50.20
2017-09-16T13:45:48.347Z,50.10
2017-09-16T13:48:17.354Z,53.60
2017-09-16T13:50:45.611Z,53.60
2017-09-16T13:53:14.623Z,55.30
2017-09-16T13:55:42.879Z,55.10
2017-09-16T13:58:11.947Z,55.20
2017-09-16T14:00:40.199Z,55.30
2017-09-16T14:03:08.456Z,49.40
2017-09-16T14:05:36.690Z,49.80
2017-09-16T14:08:05.711Z,43.90
2017-09-16T14:10:33.964Z,43.90
2017-09-16T14:13:02.979Z,44.80
2017-09-16T14:15:31.222Z,44.80
2017-09-16T14:18:00.240Z,44.40
2017-09-16T14:20:28.483Z,44.20
2017-09-16T14:22:56.751Z,44.20
2017-09-16T14:25:24.999Z,44.80
2017-09-16T14:27:53.244Z,45.40
2017-09-16T14:30:21.494Z,44.00
2017-09-16T14:32:50.510Z,46.30
2017-09-16T14:35:18.763Z,46.30
2017-09-16T14:37:47.775Z,44.00
2017-09-16T14:40:16.039Z,44.00
2017-09-16T14:42:45.055Z,44.00
2017-09-16T14:45:13.309Z,43.90
2017-09-16T14:47:42.336Z,41.50
2017-09-16T14:50:10.582Z,41.30
2017-09-16T14:52:38.831Z,41.40
2017-09-16T14:55:07.070Z,40.80
2017-09-16T14:57:35.330Z,42.70
2017-09-16T15:00:03.583Z,44.50
2017-09-16T15:02:32.602Z,42.70
2017-09-16T15:05:00.854Z,42.70
2017-09-16T15:07:29.872Z,42.80
2017-09-16T15:09:58.120Z,42.80
2017-09-16T15:12:26.383Z,43.60
2017-09-16T15:14:55.395Z,45.50
2017-09-16T15:17:23.647Z,45.50
2017-09-16T15:19:52.662Z,44.50
2017-09-16T15:22:20.910Z,44.30
2017-09-16T15:24:49.926Z,47.10
2017-09-16T15:27:18.945Z,45.10
2017-09-16T15:29:47.506Z,45.10
2017-09-16T15:32:15.751Z,42.70
2017-09-16T15:34:44.004Z,45.20
2017-09-16T15:37:12.250Z,43.70
2017-09-16T15:39:40.507Z,43.20
2017-09-16T15:42:08.745Z,44.80
2017-09-16T15:44:36.999Z,45.70
2017-09-16T15:47:05.262Z,46.20
2017-09-16T15:49:33.512Z,47.30
2017-09-16T15:52:01.768Z,46.40
2017-09-16T15:54:30.783Z,46.70
2017-09-16T15:56:59.034Z,46.70
2017-09-16T15:59:28.051Z,48.60
2017-09-16T16:01:56.312Z,48.40
2017-09-16T16:04:25.320Z,52.90
2017-09-16T16:06:53.562Z,52.80
2017-09-16T16:09:21.820Z,52.50
2017-09-16T16:11:50.064Z,53.40
2017-09-16T16:14:18.324Z,54.60
2017-09-16T16:16:46.568Z,55.60
2017-09-16T16:19:14.819Z,55.00
2017-09-16T16:21:43.067Z,56.30
2017-09-16T16:24:11.317Z,56.30
2017-09-16T16:26:39.567Z,56.80
2017-09-16T16:29:07.815Z,57.70
2017-09-16T16:31:36.079Z,58.60
2017-09-16T16:34:04.331Z,57.50
2017-09-16T16:36:32.586Z,58.20
2017-09-16T16:39:01.598Z,58.80
2017-09-16T16:41:29.850Z,58.70
2017-09-16T16:43:58.867Z,59.70
2017-09-16T16:46:27.135Z,59.70
2017-09-16T16:48:55.400Z,60.60
2017-09-16T16:51:23.663Z,63.40
2017-09-16T16:53:52.683Z,67.80
2017-09-16T16:56:20.930Z,67.80
2017-09-16T16:58:49.952Z,69.00
2017-09-16T17:01:18.236Z,69.00
2017-09-16T17:03:46.488Z,68.90
2017-09-16T17:06:14.744Z,69.10
2017-09-16T17:08:43.767Z,68.70
2017-09-16T17:11:12.089Z,68.70
2017-09-16T17:13:40.368Z,68.60
2017-09-16T17:16:08.619Z,68.50
2017-09-16T17:18:36.875Z,68.50
2017-09-16T17:21:05.139Z,68.20
2017-09-16T17:23:33.397Z,68.20
2017-09-16T17:26:01.659Z,68.20
2017-09-16T17:28:29.907Z,68.20
2017-09-16T17:30:58.167Z,68.70
2017-09-16T17:33:26.475Z,68.00
2017-09-16T17:35:54.731Z,66.60
2017-09-16T17:38:23.401Z,66.80
2017-09-16T17:40:51.697Z,66.70
2017-09-16T17:43:19.986Z,66.90
2017-09-16T17:45:48.243Z,67.70
2017-09-16T17:48:16.506Z,67.60
2017-09-16T17:50:44.760Z,67.70
2017-09-16T17:53:13.018Z,67.60
2017-09-16T17:55:42.055Z,67.50
2017-09-16T17:58:10.315Z,67.50
2017-09-16T18:00:38.558Z,68.70
2017-09-16T18:03:07.593Z,71.20
2017-09-16T18:05:35.852Z,71.20
2017-09-16T18:08:04.100Z,73.70
2017-09-16T18:10:33.367Z,79.00
2017-09-16T18:13:01.619Z,82.20
2017-09-16T18:15:29.866Z,84.30
2017-09-16T18:17:58.866Z,87.20
2017-09-16T18:20:27.111Z,87.20
2017-09-16T18:22:55.358Z,85.50
2017-09-16T18:25:23.604Z,86.90
2017-09-16T18:27:51.842Z,87.00
2017-09-16T18:30:20.087Z,85.50
2017-09-16T18:32:48.333Z,85.20
2017-09-16T18:35:16.578Z,85.50
2017-09-16T18:37:44.831Z,86.10
2017-09-16T18:40:13.079Z,85.10
2017-09-16T18:42:41.319Z,86.00
2017-09-16T18:45:10.335Z,85.30
2017-09-16T18:47:38.582Z,85.30
2017-09-16T18:50:07.603Z,84.70
2017-09-16T18:52:35.852Z,84.70
2017-09-16T18:55:04.115Z,85.60
2017-09-16T18:57:32.363Z,86.00
2017-09-16T19:00:00.608Z,86.00
2017-09-16T19:02:28.857Z,87.00
2017-09-16T19:04:57.864Z,85.50
2017-09-16T19:07:26.114Z,85.40
2017-09-16T19:09:55.123Z,87.70
2017-09-16T19:12:24.138Z,86.70
2017-09-16T19:14:52.383Z,86.60
2017-09-16T19:17:21.404Z,86.80
2017-09-16T19:19:49.871Z,86.70
2017-09-16T19:22:18.936Z,85.50
2017-09-16T19:24:47.188Z,85.50
2017-09-16T19:27:15.443Z,85.10
2017-09-16T19:29:43.691Z,86.10
2017-09-16T19:32:12.707Z,84.90
2017-09-16T19:34:40.941Z,85.40
2017-09-16T19:37:09.951Z,85.00
2017-09-16T19:39:38.954Z,85.50
2017-09-16T19:42:07.206Z,85.50
2017-09-16T19:44:36.214Z,86.00
2017-09-16T19:47:05.232Z,86.10
2017-09-16T19:49:33.487Z,86.10
2017-09-16T19:52:01.745Z,87.10
2017-09-16T19:54:30.756Z,87.90
2017-09-16T19:56:59.027Z,87.80
2017-09-16T19:59:28.026Z,89.80
2017-09-16T20:01:56.278Z,89.70
2017-09-16T20:04:25.300Z,90.20
2017-09-16T20:06:53.558Z,89.80
2017-09-16T20:09:22.567Z,89.20
2017-09-16T20:11:50.828Z,89.20
2017-09-16T20:14:19.840Z,89.30
2017-09-16T20:16:48.100Z,89.30
2017-09-16T20:19:19.663Z,89.60
2017-09-16T20:21:48.486Z,89.60
2017-09-16T20:24:16.739Z,90.20
2017-09-16T20:26:44.998Z,90.00
2017-09-16T20:29:13.253Z,89.60
2017-09-16T20:31:42.271Z,89.50
2017-09-16T20:34:10.524Z,89.50
2017-09-16T20:36:39.542Z,90.40
2017-09-16T20:39:07.787Z,90.30
2017-09-16T20:41:36.806Z,90.30
2017-09-16T20:44:05.055Z,90.30
2017-09-16T20:46:33.302Z,90.20
2017-09-16T20:49:01.560Z,90.70
2017-09-16T20:51:29.819Z,91.40
2017-09-16T20:53:58.067Z,91.70
2017-09-16T20:56:27.087Z,91.60
2017-09-16T20:58:55.335Z,91.60
2017-09-16T21:01:24.349Z,91.40
2017-09-16T21:03:52.612Z,91.30
2017-09-16T21:06:20.873Z,91.20
2017-09-16T21:08:49.883Z,91.50
2017-09-16T21:11:18.139Z,91.50
2017-09-16T21:13:47.155Z,91.30
2017-09-16T21:16:15.408Z,91.30
2017-09-16T21:18:44.422Z,90.40
2017-09-16T21:21:12.679Z,90.40
2017-09-16T21:23:41.685Z,90.40
2017-09-16T21:26:10.970Z,90.40
2017-09-16T21:28:39.995Z,90.40
2017-09-16T21:31:08.273Z,90.40
2017-09-16T21:33:36.527Z,90.40
2017-09-16T21:36:04.790Z,90.40
2017-09-16T21:38:33.039Z,90.40
2017-09-16T21:41:01.295Z,90.60
2017-09-16T21:43:29.547Z,90.30
2017-09-16T21:46:03.490Z,90.40
2017-09-16T21:48:31.744Z,90.30
2017-09-16T21:50:59.998Z,90.50
2017-09-16T21:53:28.463Z,90.70
2017-09-16T21:55:57.490Z,91.00
2017-09-16T21:58:30.537Z,91.00
2017-09-16T22:00:58.779Z,91.10
2017-09-16T22:03:27.029Z,91.10
2017-09-16T22:05:55.292Z,91.20
2017-09-16T22:08:23.558Z,91.40
2017-09-16T22:10:52.587Z,91.50
2017-09-16T22:13:20.845Z,91.50
2017-09-16T22:15:49.096Z,91.40
2017-09-16T22:18:18.125Z,91.30
2017-09-16T22:20:46.375Z,91.30
2017-09-16T22:23:14.640Z,91.20
2017-09-16T22:25:43.661Z,91.00
2017-09-16T22:28:11.910Z,91.00
2017-09-16T22:30:40.928Z,91.10
2017-09-16T22:33:09.176Z,91.10
2017-09-16T22:35:38.204Z,91.20
2017-09-16T22:38:06.458Z,91.20
2017-09-16T22:40:34.707Z,91.30
2017-09-16T22:43:03.728Z,91.30
2017-09-16T22:45:31.987Z,91.30
2017-09-16T22:48:00.999Z,91.10
2017-09-16T22:50:29.243Z,91.10
2017-09-16T22:52:58.260Z,91.20
2017-09-16T22:55:26.514Z,91.20
2017-09-16T22:57:55.530Z,91.30
2017-09-16T23:00:23.787Z,91.30
2017-09-16T23:02:52.816Z,91.40
2017-09-16T23:05:21.065Z,91.30
2017-09-16T23:07:50.091Z,91.30
2017-09-16T23:10:18.339Z,91.30
2017-09-16T23:12:46.591Z,91.20
2017-09-16T23:15:15.605Z,91.30
2017-09-16T23:17:43.859Z,91.20
2017-09-16T23:20:12.107Z,91.30
2017-09-16T23:22:40.374Z,91.40
2017-09-16T23:25:08.620Z,91.10
2017-09-16T23:27:36.880Z,91.00
2017-09-16T23:30:05.889Z,91.10
2017-09-16T23:32:34.151Z,91.10
2017-09-16T23:35:02.398Z,91.20
2017-09-16T23:37:30.652Z,91.10
2017-09-16T23:39:58.895Z,91.20
2017-09-16T23:42:27.160Z,91.20
2017-09-16T23:44:55.420Z,91.20
2017-09-16T23:47:24.437Z,91.20
2017-09-16T23:49:52.680Z,91.20
2017-09-16T23:52:21.708Z,91.10
2017-09-16T23:54:49.947Z,91.10
2017-09-16T23:57:18.975Z,91.40
2017-09-16T23:59:47.219Z,91.40
